Armstrong, Alabama
Current Conditions -  °F | °C
As of 12:55 PM on Saturday 25 Oct 2014 (Local Time) from KAUO Reporting Station
Clear Clear  
Wind Chill: 22°   Ceiling: Unl
Heat Index: 22°   Visibility: 10mi
Dew Point:   Wind: 9mph
Humidity: 43%   Direction: 330°NNW
Pressure: 30.09"   Gusts: NA
Location:  32.2227°N, 85.6394°W
Report Text: KAUO 251755Z AUTO 33008KT 10SM CLR 22/09 A3009 RMK AO1 57010
Loading
Personal Weather Stations






























Interactive Weather Map
Tropical Storm Tracking
New forecast layout! Learn more

10-Day Weather Forecast

Advertisements
Track Severe Weather on mobile